sensor_id;sensor_type;location;lat;lon;timestamp;P1;durP1;ratioP1;P2;durP2;ratioP2
26303;SDS011;70693;48.680;8.890;2023-07-30T00:02:15;1.77;;;1.50;;
26303;SDS011;70693;48.680;8.890;2023-07-30T00:04:41;1.95;;;1.33;;
26303;SDS011;70693;48.680;8.890;2023-07-30T00:07:07;2.00;;;1.50;;
26303;SDS011;70693;48.680;8.890;2023-07-30T00:09:32;2.47;;;1.60;;
26303;SDS011;70693;48.680;8.890;2023-07-30T00:11:58;2.45;;;1.67;;
26303;SDS011;70693;48.680;8.890;2023-07-30T00:14:23;1.60;;;1.40;;
26303;SDS011;70693;48.680;8.890;2023-07-30T00:16:49;2.60;;;1.60;;
26303;SDS011;70693;48.680;8.890;2023-07-30T00:19:15;2.63;;;1.90;;
26303;SDS011;70693;48.680;8.890;2023-07-30T00:21:40;3.15;;;1.63;;
26303;SDS011;70693;48.680;8.890;2023-07-30T00:24:08;2.78;;;1.40;;
26303;SDS011;70693;48.680;8.890;2023-07-30T00:26:34;1.92;;;1.65;;
26303;SDS011;70693;48.680;8.890;2023-07-30T00:28:59;3.88;;;1.40;;
26303;SDS011;70693;48.680;8.890;2023-07-30T00:31:25;2.30;;;1.67;;
26303;SDS011;70693;48.680;8.890;2023-07-30T00:33:51;3.47;;;1.52;;
26303;SDS011;70693;48.680;8.890;2023-07-30T00:36:16;2.05;;;1.58;;
26303;SDS011;70693;48.680;8.890;2023-07-30T00:38:42;2.50;;;1.40;;
26303;SDS011;70693;48.680;8.890;2023-07-30T00:41:07;2.17;;;1.50;;
26303;SDS011;70693;48.680;8.890;2023-07-30T00:43:33;1.85;;;1.35;;
26303;SDS011;70693;48.680;8.890;2023-07-30T00:45:59;1.80;;;1.52;;
26303;SDS011;70693;48.680;8.890;2023-07-30T00:48:24;1.95;;;1.55;;
26303;SDS011;70693;48.680;8.890;2023-07-30T00:50:50;2.15;;;1.60;;
26303;SDS011;70693;48.680;8.890;2023-07-30T00:53:16;1.75;;;1.65;;
26303;SDS011;70693;48.680;8.890;2023-07-30T00:55:42;2.55;;;1.65;;
26303;SDS011;70693;48.680;8.890;2023-07-30T00:58:09;1.98;;;1.67;;
26303;SDS011;70693;48.680;8.890;2023-07-30T01:00:35;1.92;;;1.63;;
26303;SDS011;70693;48.680;8.890;2023-07-30T01:03:01;2.20;;;1.63;;
26303;SDS011;70693;48.680;8.890;2023-07-30T01:05:26;1.90;;;1.50;;
26303;SDS011;70693;48.680;8.890;2023-07-30T01:07:52;1.83;;;1.60;;
26303;SDS011;70693;48.680;8.890;2023-07-30T01:10:18;1.90;;;1.60;;
26303;SDS011;70693;48.680;8.890;2023-07-30T01:12:44;2.10;;;1.70;;
26303;SDS011;70693;48.680;8.890;2023-07-30T01:15:11;1.70;;;1.60;;
26303;SDS011;70693;48.680;8.890;2023-07-30T01:17:37;2.10;;;1.55;;
26303;SDS011;70693;48.680;8.890;2023-07-30T01:20:03;2.28;;;1.30;;
26303;SDS011;70693;48.680;8.890;2023-07-30T01:22:29;1.70;;;1.55;;
26303;SDS011;70693;48.680;8.890;2023-07-30T01:24:54;2.10;;;1.63;;
26303;SDS011;70693;48.680;8.890;2023-07-30T01:27:24;1.90;;;1.60;;
26303;SDS011;70693;48.680;8.890;2023-07-30T01:29:53;4.20;;;1.77;;
26303;SDS011;70693;48.680;8.890;2023-07-30T01:32:26;1.98;;;1.60;;
26303;SDS011;70693;48.680;8.890;2023-07-30T01:34:54;3.70;;;1.50;;
26303;SDS011;70693;48.680;8.890;2023-07-30T01:37:21;1.77;;;1.40;;
26303;SDS011;70693;48.680;8.890;2023-07-30T01:39:50;2.28;;;1.60;;
26303;SDS011;70693;48.680;8.890;2023-07-30T01:42:16;2.80;;;1.70;;
26303;SDS011;70693;48.680;8.890;2023-07-30T01:44:42;1.77;;;1.45;;
26303;SDS011;70693;48.680;8.890;2023-07-30T01:47:08;1.60;;;1.35;;
26303;SDS011;70693;48.680;8.890;2023-07-30T01:49:33;1.98;;;1.38;;
26303;SDS011;70693;48.680;8.890;2023-07-30T01:51:59;2.30;;;1.58;;
26303;SDS011;70693;48.680;8.890;2023-07-30T01:54:25;1.63;;;1.48;;
26303;SDS011;70693;48.680;8.890;2023-07-30T01:56:51;1.65;;;1.50;;
26303;SDS011;70693;48.680;8.890;2023-07-30T01:59:16;2.05;;;1.52;;
26303;SDS011;70693;48.680;8.890;2023-07-30T02:01:43;2.35;;;1.60;;
26303;SDS011;70693;48.680;8.890;2023-07-30T02:04:08;1.95;;;1.60;;
26303;SDS011;70693;48.680;8.890;2023-07-30T02:06:34;1.60;;;1.50;;
26303;SDS011;70693;48.680;8.890;2023-07-30T02:09:00;1.55;;;1.42;;
26303;SDS011;70693;48.680;8.890;2023-07-30T02:11:25;2.55;;;1.70;;
26303;SDS011;70693;48.680;8.890;2023-07-30T02:13:51;2.40;;;1.52;;
26303;SDS011;70693;48.680;8.890;2023-07-30T02:16:17;1.30;;;1.20;;
26303;SDS011;70693;48.680;8.890;2023-07-30T02:18:42;2.53;;;1.58;;
26303;SDS011;70693;48.680;8.890;2023-07-30T02:21:09;1.60;;;1.35;;
26303;SDS011;70693;48.680;8.890;2023-07-30T02:23:35;1.65;;;1.50;;
26303;SDS011;70693;48.680;8.890;2023-07-30T02:26:00;2.40;;;1.40;;
26303;SDS011;70693;48.680;8.890;2023-07-30T02:28:26;1.70;;;1.40;;
26303;SDS011;70693;48.680;8.890;2023-07-30T02:30:51;2.13;;;1.52;;
26303;SDS011;70693;48.680;8.890;2023-07-30T02:33:17;1.88;;;1.45;;
26303;SDS011;70693;48.680;8.890;2023-07-30T02:35:43;2.80;;;1.50;;
26303;SDS011;70693;48.680;8.890;2023-07-30T02:38:09;1.98;;;1.65;;
26303;SDS011;70693;48.680;8.890;2023-07-30T02:40:35;1.88;;;1.58;;
26303;SDS011;70693;48.680;8.890;2023-07-30T02:43:00;1.48;;;1.33;;
26303;SDS011;70693;48.680;8.890;2023-07-30T02:45:26;1.30;;;1.20;;
26303;SDS011;70693;48.680;8.890;2023-07-30T02:47:52;3.03;;;1.67;;
26303;SDS011;70693;48.680;8.890;2023-07-30T02:50:17;2.10;;;1.40;;
26303;SDS011;70693;48.680;8.890;2023-07-30T02:52:43;1.55;;;1.33;;
26303;SDS011;70693;48.680;8.890;2023-07-30T02:55:09;1.52;;;1.27;;
26303;SDS011;70693;48.680;8.890;2023-07-30T02:57:34;1.98;;;1.30;;
26303;SDS011;70693;48.680;8.890;2023-07-30T03:00:00;1.42;;;1.20;;
26303;SDS011;70693;48.680;8.890;2023-07-30T03:02:26;1.85;;;1.45;;
26303;SDS011;70693;48.680;8.890;2023-07-30T03:04:52;1.65;;;1.40;;
26303;SDS011;70693;48.680;8.890;2023-07-30T03:07:17;1.63;;;1.40;;
26303;SDS011;70693;48.680;8.890;2023-07-30T03:09:44;1.50;;;1.40;;
26303;SDS011;70693;48.680;8.890;2023-07-30T03:12:10;2.50;;;1.40;;
26303;SDS011;70693;48.680;8.890;2023-07-30T03:14:36;1.42;;;1.10;;
26303;SDS011;70693;48.680;8.890;2023-07-30T03:17:01;2.13;;;1.70;;
26303;SDS011;70693;48.680;8.890;2023-07-30T03:19:27;1.40;;;1.27;;
26303;SDS011;70693;48.680;8.890;2023-07-30T03:21:53;1.40;;;1.30;;
26303;SDS011;70693;48.680;8.890;2023-07-30T03:24:18;1.52;;;1.27;;
26303;SDS011;70693;48.680;8.890;2023-07-30T03:26:44;2.00;;;1.45;;
26303;SDS011;70693;48.680;8.890;2023-07-30T03:29:09;2.65;;;1.33;;
26303;SDS011;70693;48.680;8.890;2023-07-30T03:31:35;1.60;;;1.50;;
26303;SDS011;70693;48.680;8.890;2023-07-30T03:34:00;1.65;;;1.30;;
26303;SDS011;70693;48.680;8.890;2023-07-30T03:36:26;1.42;;;1.23;;
26303;SDS011;70693;48.680;8.890;2023-07-30T03:38:52;1.35;;;1.10;;
26303;SDS011;70693;48.680;8.890;2023-07-30T03:41:17;2.42;;;1.38;;
26303;SDS011;70693;48.680;8.890;2023-07-30T03:43:43;1.95;;;1.38;;
26303;SDS011;70693;48.680;8.890;2023-07-30T03:46:08;2.08;;;1.40;;
26303;SDS011;70693;48.680;8.890;2023-07-30T03:48:34;1.73;;;1.10;;
26303;SDS011;70693;48.680;8.890;2023-07-30T03:50:59;2.42;;;1.33;;
26303;SDS011;70693;48.680;8.890;2023-07-30T03:53:25;2.25;;;1.17;;
26303;SDS011;70693;48.680;8.890;2023-07-30T03:55:51;1.55;;;1.20;;
26303;SDS011;70693;48.680;8.890;2023-07-30T03:58:16;1.65;;;1.20;;
26303;SDS011;70693;48.680;8.890;2023-07-30T04:00:42;1.55;;;1.38;;
26303;SDS011;70693;48.680;8.890;2023-07-30T04:03:08;2.70;;;1.58;;
26303;SDS011;70693;48.680;8.890;2023-07-30T04:05:33;1.48;;;1.30;;
26303;SDS011;70693;48.680;8.890;2023-07-30T04:07:59;1.98;;;1.17;;
26303;SDS011;70693;48.680;8.890;2023-07-30T04:10:25;1.67;;;1.23;;
26303;SDS011;70693;48.680;8.890;2023-07-30T04:12:50;1.15;;;1.05;;
26303;SDS011;70693;48.680;8.890;2023-07-30T04:15:16;1.40;;;1.17;;
26303;SDS011;70693;48.680;8.890;2023-07-30T04:17:42;2.92;;;1.33;;
26303;SDS011;70693;48.680;8.890;2023-07-30T04:20:08;2.28;;;1.33;;
26303;SDS011;70693;48.680;8.890;2023-07-30T04:22:37;1.20;;;1.10;;
26303;SDS011;70693;48.680;8.890;2023-07-30T04:25:03;1.67;;;1.33;;
26303;SDS011;70693;48.680;8.890;2023-07-30T04:27:30;2.22;;;1.45;;
26303;SDS011;70693;48.680;8.890;2023-07-30T04:29:55;1.73;;;1.25;;
26303;SDS011;70693;48.680;8.890;2023-07-30T04:32:21;1.75;;;1.20;;
26303;SDS011;70693;48.680;8.890;2023-07-30T04:34:47;1.65;;;1.20;;
26303;SDS011;70693;48.680;8.890;2023-07-30T04:37:12;1.85;;;1.13;;
26303;SDS011;70693;48.680;8.890;2023-07-30T04:39:38;1.63;;;1.10;;
26303;SDS011;70693;48.680;8.890;2023-07-30T04:42:04;2.70;;;1.38;;
26303;SDS011;70693;48.680;8.890;2023-07-30T04:44:29;1.63;;;1.30;;
26303;SDS011;70693;48.680;8.890;2023-07-30T04:46:55;1.45;;;1.13;;
26303;SDS011;70693;48.680;8.890;2023-07-30T04:49:21;1.20;;;1.10;;
26303;SDS011;70693;48.680;8.890;2023-07-30T04:51:46;1.95;;;1.10;;
26303;SDS011;70693;48.680;8.890;2023-07-30T04:54:12;2.13;;;1.33;;
26303;SDS011;70693;48.680;8.890;2023-07-30T04:56:38;1.83;;;1.17;;
26303;SDS011;70693;48.680;8.890;2023-07-30T04:59:03;2.50;;;1.30;;
26303;SDS011;70693;48.680;8.890;2023-07-30T05:01:29;1.42;;;1.10;;
26303;SDS011;70693;48.680;8.890;2023-07-30T05:03:56;1.80;;;1.40;;
26303;SDS011;70693;48.680;8.890;2023-07-30T05:06:22;1.38;;;1.13;;
26303;SDS011;70693;48.680;8.890;2023-07-30T05:08:48;1.63;;;1.02;;
26303;SDS011;70693;48.680;8.890;2023-07-30T05:11:13;1.75;;;1.10;;
26303;SDS011;70693;48.680;8.890;2023-07-30T05:13:39;1.73;;;1.15;;
26303;SDS011;70693;48.680;8.890;2023-07-30T05:16:05;1.52;;;1.13;;
26303;SDS011;70693;48.680;8.890;2023-07-30T05:18:31;2.05;;;1.15;;
26303;SDS011;70693;48.680;8.890;2023-07-30T05:20:56;1.80;;;1.20;;
26303;SDS011;70693;48.680;8.890;2023-07-30T05:23:22;1.77;;;1.30;;
26303;SDS011;70693;48.680;8.890;2023-07-30T05:25:48;1.67;;;1.10;;
26303;SDS011;70693;48.680;8.890;2023-07-30T05:28:13;1.60;;;1.30;;
26303;SDS011;70693;48.680;8.890;2023-07-30T05:30:39;1.83;;;1.10;;
26303;SDS011;70693;48.680;8.890;2023-07-30T05:33:04;1.67;;;1.00;;
26303;SDS011;70693;48.680;8.890;2023-07-30T05:35:30;1.08;;;0.98;;
26303;SDS011;70693;48.680;8.890;2023-07-30T05:37:56;1.30;;;1.20;;
26303;SDS011;70693;48.680;8.890;2023-07-30T05:40:21;1.98;;;1.30;;
26303;SDS011;70693;48.680;8.890;2023-07-30T05:42:47;1.17;;;1.00;;
26303;SDS011;70693;48.680;8.890;2023-07-30T05:45:13;1.40;;;1.10;;
26303;SDS011;70693;48.680;8.890;2023-07-30T05:47:39;1.55;;;1.00;;
26303;SDS011;70693;48.680;8.890;2023-07-30T05:50:06;1.40;;;1.10;;
26303;SDS011;70693;48.680;8.890;2023-07-30T05:52:32;1.42;;;1.20;;
26303;SDS011;70693;48.680;8.890;2023-07-30T05:54:58;2.53;;;1.17;;
26303;SDS011;70693;48.680;8.890;2023-07-30T05:57:24;1.27;;;1.02;;
26303;SDS011;70693;48.680;8.890;2023-07-30T05:59:50;1.00;;;0.90;;
26303;SDS011;70693;48.680;8.890;2023-07-30T06:02:15;3.33;;;1.10;;
26303;SDS011;70693;48.680;8.890;2023-07-30T06:04:41;1.38;;;1.08;;
26303;SDS011;70693;48.680;8.890;2023-07-30T06:07:07;1.50;;;1.05;;
26303;SDS011;70693;48.680;8.890;2023-07-30T06:09:32;1.10;;;1.00;;
26303;SDS011;70693;48.680;8.890;2023-07-30T06:11:58;1.50;;;1.10;;
26303;SDS011;70693;48.680;8.890;2023-07-30T06:14:24;1.30;;;0.90;;
26303;SDS011;70693;48.680;8.890;2023-07-30T06:16:50;1.20;;;0.90;;
26303;SDS011;70693;48.680;8.890;2023-07-30T06:19:16;1.83;;;0.90;;
26303;SDS011;70693;48.680;8.890;2023-07-30T06:21:42;1.30;;;1.10;;
26303;SDS011;70693;48.680;8.890;2023-07-30T06:24:08;1.13;;;1.00;;
26303;SDS011;70693;48.680;8.890;2023-07-30T06:26:33;1.88;;;1.02;;
26303;SDS011;70693;48.680;8.890;2023-07-30T06:28:59;1.20;;;1.10;;
26303;SDS011;70693;48.680;8.890;2023-07-30T06:31:24;1.00;;;0.80;;
26303;SDS011;70693;48.680;8.890;2023-07-30T06:33:50;1.10;;;0.80;;
26303;SDS011;70693;48.680;8.890;2023-07-30T06:36:16;1.50;;;1.20;;
26303;SDS011;70693;48.680;8.890;2023-07-30T06:38:41;2.22;;;0.90;;
26303;SDS011;70693;48.680;8.890;2023-07-30T06:41:07;1.38;;;1.08;;
26303;SDS011;70693;48.680;8.890;2023-07-30T06:43:32;1.08;;;0.90;;
26303;SDS011;70693;48.680;8.890;2023-07-30T06:45:58;1.10;;;1.00;;
26303;SDS011;70693;48.680;8.890;2023-07-30T06:48:24;1.10;;;1.00;;
26303;SDS011;70693;48.680;8.890;2023-07-30T06:50:49;2.65;;;1.00;;
26303;SDS011;70693;48.680;8.890;2023-07-30T06:53:15;1.50;;;1.00;;
26303;SDS011;70693;48.680;8.890;2023-07-30T06:55:40;1.02;;;0.80;;
26303;SDS011;70693;48.680;8.890;2023-07-30T06:58:06;0.90;;;0.77;;
26303;SDS011;70693;48.680;8.890;2023-07-30T07:00:32;1.00;;;0.90;;
26303;SDS011;70693;48.680;8.890;2023-07-30T07:02:57;1.15;;;1.00;;
26303;SDS011;70693;48.680;8.890;2023-07-30T07:05:23;1.60;;;1.15;;
26303;SDS011;70693;48.680;8.890;2023-07-30T07:07:49;1.20;;;0.90;;
26303;SDS011;70693;48.680;8.890;2023-07-30T07:10:14;1.33;;;0.93;;
26303;SDS011;70693;48.680;8.890;2023-07-30T07:12:40;0.80;;;0.80;;
26303;SDS011;70693;48.680;8.890;2023-07-30T07:15:06;1.38;;;0.80;;
26303;SDS011;70693;48.680;8.890;2023-07-30T07:17:32;1.23;;;0.80;;
26303;SDS011;70693;48.680;8.890;2023-07-30T07:19:58;1.30;;;0.95;;
26303;SDS011;70693;48.680;8.890;2023-07-30T07:22:24;1.45;;;1.00;;
26303;SDS011;70693;48.680;8.890;2023-07-30T07:24:52;1.00;;;0.80;;
26303;SDS011;70693;48.680;8.890;2023-07-30T07:27:18;0.90;;;0.85;;
26303;SDS011;70693;48.680;8.890;2023-07-30T07:29:44;0.93;;;0.77;;
26303;SDS011;70693;48.680;8.890;2023-07-30T07:32:10;1.00;;;0.90;;
26303;SDS011;70693;48.680;8.890;2023-07-30T07:34:35;1.20;;;1.00;;
26303;SDS011;70693;48.680;8.890;2023-07-30T07:37:01;1.00;;;0.90;;
26303;SDS011;70693;48.680;8.890;2023-07-30T07:39:28;1.30;;;0.88;;
26303;SDS011;70693;48.680;8.890;2023-07-30T07:41:53;1.05;;;0.90;;
26303;SDS011;70693;48.680;8.890;2023-07-30T07:44:20;1.10;;;0.90;;
26303;SDS011;70693;48.680;8.890;2023-07-30T07:46:46;0.80;;;0.75;;
26303;SDS011;70693;48.680;8.890;2023-07-30T07:49:12;1.40;;;1.00;;
26303;SDS011;70693;48.680;8.890;2023-07-30T07:51:38;1.30;;;0.95;;
26303;SDS011;70693;48.680;8.890;2023-07-30T07:54:03;0.80;;;0.70;;
26303;SDS011;70693;48.680;8.890;2023-07-30T07:56:29;0.80;;;0.80;;
26303;SDS011;70693;48.680;8.890;2023-07-30T07:58:56;1.38;;;1.05;;
26303;SDS011;70693;48.680;8.890;2023-07-30T08:01:22;1.05;;;0.85;;
26303;SDS011;70693;48.680;8.890;2023-07-30T08:03:48;1.45;;;0.90;;
26303;SDS011;70693;48.680;8.890;2023-07-30T08:06:13;1.17;;;1.05;;
26303;SDS011;70693;48.680;8.890;2023-07-30T08:08:39;1.13;;;0.80;;
26303;SDS011;70693;48.680;8.890;2023-07-30T08:11:05;1.00;;;0.90;;
26303;SDS011;70693;48.680;8.890;2023-07-30T08:13:32;1.10;;;0.90;;
26303;SDS011;70693;48.680;8.890;2023-07-30T08:15:58;1.48;;;0.90;;
26303;SDS011;70693;48.680;8.890;2023-07-30T08:18:23;1.63;;;0.93;;
26303;SDS011;70693;48.680;8.890;2023-07-30T08:20:49;0.70;;;0.70;;
26303;SDS011;70693;48.680;8.890;2023-07-30T08:23:15;1.40;;;0.93;;
26303;SDS011;70693;48.680;8.890;2023-07-30T08:25:41;1.17;;;0.70;;
26303;SDS011;70693;48.680;8.890;2023-07-30T08:28:06;1.45;;;0.90;;
26303;SDS011;70693;48.680;8.890;2023-07-30T08:30:32;0.75;;;0.70;;
26303;SDS011;70693;48.680;8.890;2023-07-30T08:32:58;1.00;;;0.82;;
26303;SDS011;70693;48.680;8.890;2023-07-30T08:35:23;1.20;;;0.90;;
26303;SDS011;70693;48.680;8.890;2023-07-30T08:37:49;1.45;;;0.80;;
26303;SDS011;70693;48.680;8.890;2023-07-30T08:40:14;0.98;;;0.80;;
26303;SDS011;70693;48.680;8.890;2023-07-30T08:42:40;1.50;;;1.00;;
26303;SDS011;70693;48.680;8.890;2023-07-30T08:45:06;0.98;;;0.80;;
26303;SDS011;70693;48.680;8.890;2023-07-30T08:47:35;1.00;;;0.90;;
26303;SDS011;70693;48.680;8.890;2023-07-30T08:50:02;1.30;;;1.00;;
26303;SDS011;70693;48.680;8.890;2023-07-30T08:52:28;0.90;;;0.80;;
26303;SDS011;70693;48.680;8.890;2023-07-30T08:54:54;1.38;;;0.90;;
26303;SDS011;70693;48.680;8.890;2023-07-30T08:57:22;1.13;;;0.90;;
26303;SDS011;70693;48.680;8.890;2023-07-30T08:59:53;1.27;;;0.88;;
26303;SDS011;70693;48.680;8.890;2023-07-30T09:02:39;1.08;;;0.98;;
26303;SDS011;70693;48.680;8.890;2023-07-30T09:05:07;0.82;;;0.70;;
26303;SDS011;70693;48.680;8.890;2023-07-30T09:07:33;1.00;;;0.90;;
26303;SDS011;70693;48.680;8.890;2023-07-30T09:09:58;1.23;;;0.80;;
26303;SDS011;70693;48.680;8.890;2023-07-30T09:12:30;1.05;;;0.82;;
26303;SDS011;70693;48.680;8.890;2023-07-30T09:14:57;1.15;;;0.80;;
26303;SDS011;70693;48.680;8.890;2023-07-30T09:17:22;0.90;;;0.80;;
26303;SDS011;70693;48.680;8.890;2023-07-30T09:19:48;1.00;;;0.80;;
26303;SDS011;70693;48.680;8.890;2023-07-30T09:22:24;1.00;;;0.80;;
26303;SDS011;70693;48.680;8.890;2023-07-30T09:24:49;0.93;;;0.82;;
26303;SDS011;70693;48.680;8.890;2023-07-30T09:27:19;1.08;;;0.77;;
26303;SDS011;70693;48.680;8.890;2023-07-30T09:29:51;0.90;;;0.80;;
26303;SDS011;70693;48.680;8.890;2023-07-30T09:32:17;1.02;;;0.80;;
26303;SDS011;70693;48.680;8.890;2023-07-30T09:34:44;1.13;;;0.75;;
26303;SDS011;70693;48.680;8.890;2023-07-30T09:37:10;1.00;;;0.80;;
26303;SDS011;70693;48.680;8.890;2023-07-30T09:39:36;1.45;;;0.85;;
26303;SDS011;70693;48.680;8.890;2023-07-30T09:42:02;1.05;;;0.90;;
26303;SDS011;70693;48.680;8.890;2023-07-30T09:44:28;1.08;;;0.98;;
26303;SDS011;70693;48.680;8.890;2023-07-30T09:46:58;1.10;;;0.80;;
26303;SDS011;70693;48.680;8.890;2023-07-30T09:49:23;1.00;;;0.85;;
26303;SDS011;70693;48.680;8.890;2023-07-30T09:51:49;0.70;;;0.60;;
26303;SDS011;70693;48.680;8.890;2023-07-30T09:54:16;0.80;;;0.70;;
26303;SDS011;70693;48.680;8.890;2023-07-30T09:56:42;1.00;;;0.90;;
26303;SDS011;70693;48.680;8.890;2023-07-30T09:59:09;1.10;;;0.93;;
26303;SDS011;70693;48.680;8.890;2023-07-30T10:01:47;0.75;;;0.70;;
26303;SDS011;70693;48.680;8.890;2023-07-30T10:04:14;1.10;;;0.70;;
26303;SDS011;70693;48.680;8.890;2023-07-30T10:06:49;1.65;;;1.00;;
26303;SDS011;70693;48.680;8.890;2023-07-30T10:09:20;1.20;;;0.90;;
26303;SDS011;70693;48.680;8.890;2023-07-30T10:11:48;1.15;;;0.90;;
26303;SDS011;70693;48.680;8.890;2023-07-30T10:14:15;2.00;;;1.00;;
26303;SDS011;70693;48.680;8.890;2023-07-30T10:16:51;1.10;;;0.93;;
26303;SDS011;70693;48.680;8.890;2023-07-30T10:19:21;1.13;;;0.90;;
26303;SDS011;70693;48.680;8.890;2023-07-30T10:21:48;1.00;;;0.90;;
26303;SDS011;70693;48.680;8.890;2023-07-30T10:24:13;1.27;;;1.10;;
26303;SDS011;70693;48.680;8.890;2023-07-30T10:26:39;1.05;;;0.90;;
26303;SDS011;70693;48.680;8.890;2023-07-30T10:29:18;2.15;;;1.08;;
26303;SDS011;70693;48.680;8.890;2023-07-30T10:31:54;1.88;;;0.90;;
26303;SDS011;70693;48.680;8.890;2023-07-30T10:34:21;0.98;;;0.82;;
26303;SDS011;70693;48.680;8.890;2023-07-30T10:36:54;1.00;;;0.90;;
26303;SDS011;70693;48.680;8.890;2023-07-30T10:39:29;0.82;;;0.80;;
26303;SDS011;70693;48.680;8.890;2023-07-30T10:41:55;1.20;;;0.90;;
26303;SDS011;70693;48.680;8.890;2023-07-30T10:44:23;0.90;;;0.80;;
26303;SDS011;70693;48.680;8.890;2023-07-30T10:46:49;1.45;;;0.98;;
26303;SDS011;70693;48.680;8.890;2023-07-30T10:49:16;1.02;;;0.80;;
26303;SDS011;70693;48.680;8.890;2023-07-30T10:51:41;1.10;;;0.90;;
26303;SDS011;70693;48.680;8.890;2023-07-30T10:54:10;1.33;;;0.90;;
26303;SDS011;70693;48.680;8.890;2023-07-30T10:56:36;1.45;;;0.95;;
26303;SDS011;70693;48.680;8.890;2023-07-30T10:59:06;1.75;;;0.90;;
26303;SDS011;70693;48.680;8.890;2023-07-30T11:01:41;1.50;;;1.02;;
26303;SDS011;70693;48.680;8.890;2023-07-30T11:04:13;1.55;;;0.98;;
26303;SDS011;70693;48.680;8.890;2023-07-30T11:06:49;1.42;;;0.90;;
26303;SDS011;70693;48.680;8.890;2023-07-30T11:09:19;2.28;;;1.35;;
26303;SDS011;70693;48.680;8.890;2023-07-30T11:11:48;1.70;;;1.20;;
26303;SDS011;70693;48.680;8.890;2023-07-30T11:14:15;1.50;;;1.20;;
26303;SDS011;70693;48.680;8.890;2023-07-30T11:17:02;1.60;;;1.10;;
26303;SDS011;70693;48.680;8.890;2023-07-30T11:19:27;1.92;;;1.02;;
26303;SDS011;70693;48.680;8.890;2023-07-30T11:21:54;1.50;;;0.95;;
26303;SDS011;70693;48.680;8.890;2023-07-30T11:24:21;1.10;;;0.85;;
26303;SDS011;70693;48.680;8.890;2023-07-30T11:26:58;1.20;;;1.00;;
26303;SDS011;70693;48.680;8.890;2023-07-30T11:29:25;1.13;;;1.02;;
26303;SDS011;70693;48.680;8.890;2023-07-30T11:31:50;2.20;;;1.15;;
26303;SDS011;70693;48.680;8.890;2023-07-30T11:34:17;1.88;;;1.00;;
26303;SDS011;70693;48.680;8.890;2023-07-30T11:36:44;1.52;;;1.00;;
26303;SDS011;70693;48.680;8.890;2023-07-30T11:39:10;1.50;;;1.10;;
26303;SDS011;70693;48.680;8.890;2023-07-30T11:41:36;1.30;;;1.05;;
26303;SDS011;70693;48.680;8.890;2023-07-30T11:44:03;1.40;;;1.00;;
26303;SDS011;70693;48.680;8.890;2023-07-30T11:46:29;1.80;;;1.15;;
26303;SDS011;70693;48.680;8.890;2023-07-30T11:49:15;2.10;;;1.08;;
26303;SDS011;70693;48.680;8.890;2023-07-30T11:51:46;2.45;;;0.95;;
26303;SDS011;70693;48.680;8.890;2023-07-30T11:54:19;1.73;;;1.02;;
26303;SDS011;70693;48.680;8.890;2023-07-30T11:56:57;1.77;;;1.10;;
26303;SDS011;70693;48.680;8.890;2023-07-30T11:59:23;1.55;;;1.08;;
26303;SDS011;70693;48.680;8.890;2023-07-30T12:01:49;4.43;;;1.20;;
26303;SDS011;70693;48.680;8.890;2023-07-30T12:04:14;1.38;;;1.15;;
26303;SDS011;70693;48.680;8.890;2023-07-30T12:06:50;1.25;;;0.98;;
26303;SDS011;70693;48.680;8.890;2023-07-30T12:09:19;1.42;;;1.00;;
26303;SDS011;70693;48.680;8.890;2023-07-30T12:11:57;1.10;;;1.00;;
26303;SDS011;70693;48.680;8.890;2023-07-30T12:14:26;1.92;;;1.17;;
26303;SDS011;70693;48.680;8.890;2023-07-30T12:16:58;1.65;;;1.13;;
26303;SDS011;70693;48.680;8.890;2023-07-30T12:19:24;1.23;;;1.08;;
26303;SDS011;70693;48.680;8.890;2023-07-30T12:21:50;1.75;;;0.93;;
26303;SDS011;70693;48.680;8.890;2023-07-30T12:24:15;1.25;;;1.00;;
26303;SDS011;70693;48.680;8.890;2023-07-30T12:26:41;1.17;;;0.93;;
26303;SDS011;70693;48.680;8.890;2023-07-30T12:29:06;1.75;;;0.93;;
26303;SDS011;70693;48.680;8.890;2023-07-30T12:31:32;4.72;;;1.23;;
26303;SDS011;70693;48.680;8.890;2023-07-30T12:33:58;1.30;;;0.90;;
26303;SDS011;70693;48.680;8.890;2023-07-30T12:36:23;1.90;;;1.15;;
26303;SDS011;70693;48.680;8.890;2023-07-30T12:38:49;1.75;;;1.20;;
26303;SDS011;70693;48.680;8.890;2023-07-30T12:41:17;1.63;;;0.95;;
26303;SDS011;70693;48.680;8.890;2023-07-30T12:43:43;1.20;;;1.05;;
26303;SDS011;70693;48.680;8.890;2023-07-30T12:46:09;1.55;;;1.20;;
26303;SDS011;70693;48.680;8.890;2023-07-30T12:48:35;1.23;;;1.08;;
26303;SDS011;70693;48.680;8.890;2023-07-30T12:51:01;1.40;;;1.00;;
26303;SDS011;70693;48.680;8.890;2023-07-30T12:53:27;1.35;;;1.00;;
26303;SDS011;70693;48.680;8.890;2023-07-30T12:55:53;1.27;;;1.10;;
26303;SDS011;70693;48.680;8.890;2023-07-30T12:58:18;1.75;;;1.30;;
26303;SDS011;70693;48.680;8.890;2023-07-30T13:00:44;2.10;;;1.08;;
26303;SDS011;70693;48.680;8.890;2023-07-30T13:03:09;1.13;;;1.00;;
26303;SDS011;70693;48.680;8.890;2023-07-30T13:05:36;1.50;;;1.17;;
26303;SDS011;70693;48.680;8.890;2023-07-30T13:08:01;2.00;;;1.15;;
26303;SDS011;70693;48.680;8.890;2023-07-30T13:10:27;1.58;;;1.10;;
26303;SDS011;70693;48.680;8.890;2023-07-30T13:12:52;1.40;;;0.90;;
26303;SDS011;70693;48.680;8.890;2023-07-30T13:15:18;1.90;;;1.30;;
26303;SDS011;70693;48.680;8.890;2023-07-30T13:17:44;2.58;;;1.20;;
26303;SDS011;70693;48.680;8.890;2023-07-30T13:20:09;1.25;;;1.10;;
26303;SDS011;70693;48.680;8.890;2023-07-30T13:22:35;1.48;;;1.20;;
26303;SDS011;70693;48.680;8.890;2023-07-30T13:25:01;1.63;;;1.08;;
26303;SDS011;70693;48.680;8.890;2023-07-30T13:27:27;1.40;;;1.10;;
26303;SDS011;70693;48.680;8.890;2023-07-30T13:29:52;2.10;;;1.25;;
26303;SDS011;70693;48.680;8.890;2023-07-30T13:32:18;1.90;;;1.30;;
26303;SDS011;70693;48.680;8.890;2023-07-30T13:34:43;1.40;;;1.10;;
26303;SDS011;70693;48.680;8.890;2023-07-30T13:37:09;1.10;;;0.90;;
26303;SDS011;70693;48.680;8.890;2023-07-30T13:39:35;1.70;;;1.13;;
26303;SDS011;70693;48.680;8.890;2023-07-30T13:42:00;1.27;;;1.10;;
26303;SDS011;70693;48.680;8.890;2023-07-30T13:44:26;3.17;;;1.30;;
26303;SDS011;70693;48.680;8.890;2023-07-30T13:46:52;1.73;;;1.20;;
26303;SDS011;70693;48.680;8.890;2023-07-30T13:49:18;1.60;;;1.10;;
26303;SDS011;70693;48.680;8.890;2023-07-30T13:51:44;2.72;;;1.23;;
26303;SDS011;70693;48.680;8.890;2023-07-30T13:54:10;1.70;;;1.08;;
26303;SDS011;70693;48.680;8.890;2023-07-30T13:56:35;1.42;;;1.08;;
26303;SDS011;70693;48.680;8.890;2023-07-30T13:59:03;1.88;;;1.08;;
26303;SDS011;70693;48.680;8.890;2023-07-30T14:01:30;1.83;;;1.20;;
26303;SDS011;70693;48.680;8.890;2023-07-30T14:03:55;1.63;;;1.20;;
26303;SDS011;70693;48.680;8.890;2023-07-30T14:06:21;2.58;;;1.30;;
26303;SDS011;70693;48.680;8.890;2023-07-30T14:08:46;2.17;;;1.05;;
26303;SDS011;70693;48.680;8.890;2023-07-30T14:11:12;3.35;;;1.40;;
26303;SDS011;70693;48.680;8.890;2023-07-30T14:13:38;2.03;;;1.10;;
26303;SDS011;70693;48.680;8.890;2023-07-30T14:16:03;2.83;;;1.40;;
26303;SDS011;70693;48.680;8.890;2023-07-30T14:18:29;1.85;;;1.30;;
26303;SDS011;70693;48.680;8.890;2023-07-30T14:20:54;2.50;;;1.38;;
26303;SDS011;70693;48.680;8.890;2023-07-30T14:23:20;3.17;;;1.38;;
26303;SDS011;70693;48.680;8.890;2023-07-30T14:25:46;1.50;;;1.15;;
26303;SDS011;70693;48.680;8.890;2023-07-30T14:28:11;1.60;;;1.23;;
26303;SDS011;70693;48.680;8.890;2023-07-30T14:30:39;3.13;;;1.45;;
26303;SDS011;70693;48.680;8.890;2023-07-30T14:33:09;3.00;;;1.30;;
26303;SDS011;70693;48.680;8.890;2023-07-30T14:35:35;1.92;;;1.20;;
26303;SDS011;70693;48.680;8.890;2023-07-30T14:38:03;2.85;;;1.30;;
26303;SDS011;70693;48.680;8.890;2023-07-30T14:40:32;2.08;;;1.30;;
26303;SDS011;70693;48.680;8.890;2023-07-30T14:42:57;3.08;;;1.30;;
26303;SDS011;70693;48.680;8.890;2023-07-30T14:45:23;2.22;;;1.13;;